Time;durP1;ratioP1;P1;durP2;ratioP2;P2;SDS_P1;SDS_P2;PMS_P1;PMS_P2;Temp;Humidity;BMP_temperature;BMP_pressure;BME280_temperature;BME280_humidity;BME280_pressure;Samples;Min_cycle;Max_cycle;Signal;HPM_P1;HPM_P2
2022/06/10 00:02:02;;;;;;;0.00;0.00;;;;;;;;;;5017357;28;20385;-83
2022/06/10 00:04:28;;;;;;;0.00;0.00;;;;;;;;;;5016780;28;20056;-83
2022/06/10 00:06:54;;;;;;;0.00;0.00;;;;;;;;;;5016877;28;20041;-82
2022/06/10 00:09:19;;;;;;;0.00;0.00;;;;;;;;;;5016331;28;20083;-83
2022/06/10 00:11:45;;;;;;;0.00;0.00;;;;;;;;;;5016995;28;20041;-82
2022/06/10 00:14:11;;;;;;;0.00;0.00;;;;;;;;;;5016495;28;20053;-82
2022/06/10 00:16:37;;;;;;;0.00;0.00;;;;;;;;;;5016634;28;20496;-83
2022/06/10 00:19:03;;;;;;;0.00;0.00;;;;;;;;;;5016497;28;20076;-82
2022/06/10 00:21:29;;;;;;;0.00;0.00;;;;;;;;;;5016927;28;20396;-82
2022/06/10 00:23:55;;;;;;;0.00;0.00;;;;;;;;;;5016253;28;20041;-82
2022/06/10 00:26:21;;;;;;;0.00;0.00;;;;;;;;;;5033199;28;20112;-82
2022/06/10 00:28:48;;;;;;;0.00;0.00;;;;;;;;;;5016161;28;20092;-82
2022/06/10 00:31:15;;;;;;;0.00;0.00;;;;;;;;;;5016555;28;20095;-82
2022/06/10 00:33:41;;;;;;;0.00;0.00;;;;;;;;;;5016616;28;20508;-82
2022/06/10 00:36:07;;;;;;;0.00;0.00;;;;;;;;;;5016307;28;20551;-82
2022/06/10 00:38:33;;;;;;;0.00;0.00;;;;;;;;;;5034091;28;20041;-82
2022/06/10 00:41:00;;;;;;;0.00;0.00;;;;;;;;;;5016264;28;20092;-82
2022/06/10 00:43:29;;;;;;;0.00;0.00;;;;;;;;;;5015978;28;20045;-83
2022/06/10 00:45:55;;;;;;;0.00;0.00;;;;;;;;;;5016214;28;20049;-82
2022/06/10 00:48:26;;;;;;;0.00;0.00;;;;;;;;;;5016124;28;20049;-82
2022/06/10 00:50:52;;;;;;;0.00;0.00;;;;;;;;;;5015831;28;20095;-82
2022/06/10 00:53:20;;;;;;;0.00;0.00;;;;;;;;;;5015908;28;20124;-82
2022/06/10 00:55:46;;;;;;;0.00;0.00;;;;;;;;;;5033470;28;20076;-82
2022/06/10 00:58:18;;;;;;;0.00;0.00;;;;;;;;;;5016071;28;20184;-82
2022/06/10 01:00:45;;;;;;;0.00;0.00;;;;;;;;;;5015999;28;20485;-82
2022/06/10 01:03:11;;;;;;;0.00;0.00;;;;;;;;;;5015905;28;20075;-82
2022/06/10 01:05:37;;;;;;;0.00;0.00;;;;;;;;;;5015591;28;20045;-82
2022/06/10 01:08:09;;;;;;;0.00;0.00;;;;;;;;;;5015786;28;20041;-82
2022/06/10 01:10:42;;;;;;;0.00;0.00;;;;;;;;;;5015579;28;20488;-82
2022/06/10 01:13:08;;;;;;;0.00;0.00;;;;;;;;;;5015691;28;20045;-82
2022/06/10 01:15:34;;;;;;;0.00;0.00;;;;;;;;;;5032946;28;20057;-82
2022/06/10 01:18:01;;;;;;;0.00;0.00;;;;;;;;;;5015788;28;20124;-82
2022/06/10 01:20:51;;;;;;;0.00;0.00;;;;;;;;;;5015541;28;20507;-82
2022/06/10 01:23:23;;;;;;;0.00;0.00;;;;;;;;;;5033038;28;20041;-82
2022/06/10 01:26:07;;;;;;;0.00;0.00;;;;;;;;;;5015529;28;20440;-82
2022/06/10 01:28:56;;;;;;;0.00;0.00;;;;;;;;;;5015818;28;20045;-82
2022/06/10 01:31:38;;;;;;;0.00;0.00;;;;;;;;;;5010023;28;20049;-82
2022/06/10 01:34:19;;;;;;;0.00;0.00;;;;;;;;;;5015737;28;20506;-82
2022/06/10 01:36:51;;;;;;;0.00;0.00;;;;;;;;;;5015463;28;20277;-82
2022/06/10 01:39:29;;;;;;;0.00;0.00;;;;;;;;;;5015592;28;20056;-82
2022/06/10 01:42:02;;;;;;;0.00;0.00;;;;;;;;;;5015315;28;20103;-82
2022/06/10 01:44:43;;;;;;;0.00;0.00;;;;;;;;;;5015314;28;20045;-82
2022/06/10 01:47:13;;;;;;;0.00;0.00;;;;;;;;;;5015529;28;20050;-82
2022/06/10 01:49:47;;;;;;;0.00;0.00;;;;;;;;;;5015317;28;20049;-82
2022/06/10 01:52:20;;;;;;;0.00;0.00;;;;;;;;;;5015139;28;20095;-82
2022/06/10 01:54:49;;;;;;;0.00;0.00;;;;;;;;;;5014963;28;20080;-82
2022/06/10 01:57:48;;;;;;;0.00;0.00;;;;;;;;;;5032756;28;20041;-82
2022/06/10 02:00:19;;;;;;;0.00;0.00;;;;;;;;;;4993452;28;20061;-82
2022/06/10 02:02:50;;;;;;;0.00;0.00;;;;;;;;;;5033062;28;20039;-82
2022/06/10 02:05:19;;;;;;;0.00;0.00;;;;;;;;;;5014691;28;20045;-82
2022/06/10 02:08:11;;;;;;;0.00;0.00;;;;;;;;;;5015252;28;20045;-82
2022/06/10 02:10:49;;;;;;;0.00;0.00;;;;;;;;;;5014652;28;20081;-82
2022/06/10 02:13:18;;;;;;;0.00;0.00;;;;;;;;;;5014911;28;20045;-82
2022/06/10 02:15:50;;;;;;;0.00;0.00;;;;;;;;;;5014684;28;20149;-82
2022/06/10 02:18:24;;;;;;;0.00;0.00;;;;;;;;;;5032769;28;20053;-82
2022/06/10 02:20:53;;;;;;;0.00;0.00;;;;;;;;;;5014743;28;20508;-82
2022/06/10 02:23:21;;;;;;;0.00;0.00;;;;;;;;;;5014705;28;20072;-82
2022/06/10 02:25:52;;;;;;;0.00;0.00;;;;;;;;;;5032595;28;20048;-82
2022/06/10 02:28:34;;;;;;;0.00;0.00;;;;;;;;;;5014818;28;20099;-82
2022/06/10 02:31:03;;;;;;;0.00;0.00;;;;;;;;;;5032255;28;20076;-82
2022/06/10 02:33:30;;;;;;;0.00;0.00;;;;;;;;;;5015215;28;20037;-82
2022/06/10 02:35:59;;;;;;;0.00;0.00;;;;;;;;;;5018465;28;20087;-82
2022/06/10 02:38:49;;;;;;;0.00;0.00;;;;;;;;;;5018807;28;20042;-82
2022/06/10 02:41:20;;;;;;;0.00;0.00;;;;;;;;;;5018604;28;20080;-82
2022/06/10 02:43:58;;;;;;;0.00;0.00;;;;;;;;;;5018395;28;20488;-82
2022/06/10 02:46:33;;;;;;;0.00;0.00;;;;;;;;;;5018429;28;20049;-82
2022/06/10 02:49:15;;;;;;;0.00;0.00;;;;;;;;;;5018613;28;20460;-82
2022/06/10 02:51:41;;;;;;;0.00;0.00;;;;;;;;;;5018344;28;20045;-82
2022/06/10 02:54:16;;;;;;;0.00;0.00;;;;;;;;;;5018225;28;20037;-82
2022/06/10 02:56:42;;;;;;;0.00;0.00;;;;;;;;;;5018097;28;20120;-82
2022/06/10 03:02:12;;;;;;;0.00;0.00;;;;;;;;;;5018032;28;20069;-82
2022/06/10 03:04:58;;;;;;;0.00;0.00;;;;;;;;;;5018019;28;20041;-82
2022/06/10 03:07:44;;;;;;;0.00;0.00;;;;;;;;;;5018238;28;20037;-82
2022/06/10 03:10:13;;;;;;;0.00;0.00;;;;;;;;;;5017915;28;20052;-82
2022/06/10 03:12:58;;;;;;;0.00;0.00;;;;;;;;;;5017964;28;20393;-82
2022/06/10 03:15:24;;;;;;;0.00;0.00;;;;;;;;;;5017376;28;20450;-81
2022/06/10 03:17:51;;;;;;;0.00;0.00;;;;;;;;;;5018103;28;20124;-82
2022/06/10 03:20:29;;;;;;;0.00;0.00;;;;;;;;;;5017880;28;20045;-82
2022/06/10 03:23:03;;;;;;;0.00;0.00;;;;;;;;;;5017957;28;20052;-82
2022/06/10 03:25:56;;;;;;;0.00;0.00;;;;;;;;;;5017505;28;20049;-82
2022/06/10 03:28:39;;;;;;;0.00;0.00;;;;;;;;;;5015736;28;20057;-82
2022/06/10 03:31:05;;;;;;;0.00;0.00;;;;;;;;;;5035319;28;20049;-82
2022/06/10 03:33:40;;;;;;;0.00;0.00;;;;;;;;;;5017541;28;20045;-82
2022/06/10 03:36:08;;;;;;;0.00;0.00;;;;;;;;;;5017452;28;20537;-82
2022/06/10 03:38:38;;;;;;;0.00;0.00;;;;;;;;;;5017501;28;20120;-82
2022/06/10 03:41:04;;;;;;;0.00;0.00;;;;;;;;;;5017182;28;20079;-82
2022/06/10 03:43:39;;;;;;;0.00;0.00;;;;;;;;;;5017365;28;20041;-82
2022/06/10 03:46:07;;;;;;;0.00;0.00;;;;;;;;;;5016605;28;20096;-82
2022/06/10 03:48:35;;;;;;;0.00;0.00;;;;;;;;;;5017254;28;20042;-82
2022/06/10 03:51:02;;;;;;;0.00;0.00;;;;;;;;;;5016994;28;20057;-82
2022/06/10 03:53:27;;;;;;;0.00;0.00;;;;;;;;;;5017074;28;20045;-82
2022/06/10 03:55:53;;;;;;;0.00;0.00;;;;;;;;;;5016890;28;20403;-82
2022/06/10 03:58:21;;;;;;;0.00;0.00;;;;;;;;;;5017037;28;20041;-82
2022/06/10 04:00:47;;;;;;;0.00;0.00;;;;;;;;;;5016852;28;20124;-82
2022/06/10 04:03:13;;;;;;;0.00;0.00;;;;;;;;;;5017034;28;20056;-82
2022/06/10 04:05:40;;;;;;;0.00;0.00;;;;;;;;;;5016982;28;20080;-82
2022/06/10 04:08:06;;;;;;;0.00;0.00;;;;;;;;;;5016932;28;20136;-82
2022/06/10 04:10:32;;;;;;;0.00;0.00;;;;;;;;;;5034781;28;20091;-82
2022/06/10 04:12:59;;;;;;;0.00;0.00;;;;;;;;;;5016830;28;20037;-82
2022/06/10 04:15:27;;;;;;;0.00;0.00;;;;;;;;;;5016713;28;20064;-82
2022/06/10 04:17:53;;;;;;;0.00;0.00;;;;;;;;;;5016454;28;20048;-82
2022/06/10 04:20:22;;;;;;;0.00;0.00;;;;;;;;;;5016944;28;20045;-82
2022/06/10 04:22:48;;;;;;;0.00;0.00;;;;;;;;;;5032891;28;20046;-83
2022/06/10 04:25:14;;;;;;;0.00;0.00;;;;;;;;;;5016850;28;20037;-83
2022/06/10 04:27:40;;;;;;;0.00;0.00;;;;;;;;;;5016489;28;20081;-82
2022/06/10 04:30:07;;;;;;;0.00;0.00;;;;;;;;;;5034145;28;20053;-82
2022/06/10 04:32:33;;;;;;;0.00;0.00;;;;;;;;;;5016115;28;20038;-82
2022/06/10 04:34:59;;;;;;;0.00;0.00;;;;;;;;;;5016722;28;20064;-83
2022/06/10 04:37:26;;;;;;;0.00;0.00;;;;;;;;;;5016432;28;20477;-82
2022/06/10 04:39:52;;;;;;;0.00;0.00;;;;;;;;;;5016380;28;20049;-83
2022/06/10 04:42:18;;;;;;;0.00;0.00;;;;;;;;;;5016011;28;20485;-83
2022/06/10 04:44:44;;;;;;;0.00;0.00;;;;;;;;;;5016294;28;20048;-82
2022/06/10 04:47:10;;;;;;;0.00;0.00;;;;;;;;;;5016037;28;20045;-82
2022/06/10 04:49:36;;;;;;;0.00;0.00;;;;;;;;;;5016056;28;20396;-82
2022/06/10 04:52:03;;;;;;;0.00;0.00;;;;;;;;;;5033612;28;20033;-82
2022/06/10 04:54:31;;;;;;;0.00;0.00;;;;;;;;;;5033940;28;20045;-82
2022/06/10 04:56:57;;;;;;;0.00;0.00;;;;;;;;;;5031701;28;20128;-83
2022/06/10 04:59:23;;;;;;;0.00;0.00;;;;;;;;;;5015950;28;20181;-82
2022/06/10 05:01:49;;;;;;;0.00;0.00;;;;;;;;;;5032125;28;20124;-82
2022/06/10 05:04:15;;;;;;;0.00;0.00;;;;;;;;;;5015779;28;20045;-82
2022/06/10 05:06:41;;;;;;;0.00;0.00;;;;;;;;;;5015578;28;20338;-82
2022/06/10 05:09:07;;;;;;;0.00;0.00;;;;;;;;;;5015973;28;20045;-83
2022/06/10 05:11:33;;;;;;;0.00;0.00;;;;;;;;;;5015484;28;20446;-83
2022/06/10 05:13:59;;;;;;;0.00;0.00;;;;;;;;;;5033355;28;20197;-82
2022/06/10 05:16:26;;;;;;;0.00;0.00;;;;;;;;;;5015572;28;20081;-82
2022/06/10 05:18:52;;;;;;;0.00;0.00;;;;;;;;;;5015377;28;20041;-82
2022/06/10 05:21:18;;;;;;;0.00;0.00;;;;;;;;;;5015799;28;20091;-82
2022/06/10 05:23:45;;;;;;;0.00;0.00;;;;;;;;;;5015283;28;20095;-82
2022/06/10 05:26:11;;;;;;;0.00;0.00;;;;;;;;;;5015564;28;20076;-82
2022/06/10 05:28:37;;;;;;;0.00;0.00;;;;;;;;;;5015235;28;20041;-82
2022/06/10 05:31:03;;;;;;;0.00;0.00;;;;;;;;;;5015461;28;20052;-82
2022/06/10 05:34:44;;;;;;;0.00;0.00;;;;;;;;;;5015455;28;20041;-82
2022/06/10 05:36:17;;;;;;;0.00;0.00;;;;;;;;;;5015680;28;20045;-82
2022/06/10 05:38:46;;;;;;;0.00;0.00;;;;;;;;;;5032937;28;20504;-82
2022/06/10 05:43:57;;;;;;;0.00;0.00;;;;;;;;;;5032894;28;20124;-82
2022/06/10 05:46:23;;;;;;;0.00;0.00;;;;;;;;;;5015310;28;20527;-82
2022/06/10 05:48:49;;;;;;;0.00;0.00;;;;;;;;;;5015354;28;20045;-82
2022/06/10 05:51:15;;;;;;;0.00;0.00;;;;;;;;;;5015067;28;20046;-82
2022/06/10 05:53:41;;;;;;;0.00;0.00;;;;;;;;;;5014894;28;20045;-82
2022/06/10 05:56:07;;;;;;;0.00;0.00;;;;;;;;;;5015176;28;20038;-82
2022/06/10 05:58:33;;;;;;;0.00;0.00;;;;;;;;;;5015146;28;20402;-82
2022/06/10 06:00:59;;;;;;;0.00;0.00;;;;;;;;;;5015346;28;20068;-82
2022/06/10 06:03:25;;;;;;;0.00;0.00;;;;;;;;;;5014929;28;20504;-82
2022/06/10 06:05:51;;;;;;;0.00;0.00;;;;;;;;;;5015300;28;20071;-82
2022/06/10 06:08:17;;;;;;;0.00;0.00;;;;;;;;;;5016430;28;20125;-82
2022/06/10 06:10:43;;;;;;;0.00;0.00;;;;;;;;;;5019098;28;20096;-83
2022/06/10 06:13:10;;;;;;;0.00;0.00;;;;;;;;;;5018859;28;20167;-82
2022/06/10 06:15:36;;;;;;;0.00;0.00;;;;;;;;;;5036511;28;20412;-82
2022/06/10 06:18:02;;;;;;;0.00;0.00;;;;;;;;;;5018848;28;20138;-82
2022/06/10 06:20:28;;;;;;;0.00;0.00;;;;;;;;;;5018982;28;20373;-82
2022/06/10 06:22:54;;;;;;;0.00;0.00;;;;;;;;;;5036250;28;20494;-83
2022/06/10 06:25:20;;;;;;;0.00;0.00;;;;;;;;;;5018770;28;20048;-83
2022/06/10 06:27:48;;;;;;;0.00;0.00;;;;;;;;;;5018589;28;20049;-83
2022/06/10 06:30:16;;;;;;;0.00;0.00;;;;;;;;;;5036589;28;20041;-83
2022/06/10 06:32:42;;;;;;;0.00;0.00;;;;;;;;;;5018712;28;20117;-84
2022/06/10 06:35:08;;;;;;;0.00;0.00;;;;;;;;;;5018601;28;20117;-82
2022/06/10 06:37:34;;;;;;;0.00;0.00;;;;;;;;;;5018343;28;20042;-82
2022/06/10 06:40:00;;;;;;;0.00;0.00;;;;;;;;;;5018778;28;20052;-82
2022/06/10 06:42:26;;;;;;;0.00;0.00;;;;;;;;;;5018072;28;20041;-82
2022/06/10 06:44:52;;;;;;;0.00;0.00;;;;;;;;;;5017724;28;20124;-82
2022/06/10 06:47:18;;;;;;;0.00;0.00;;;;;;;;;;5018209;28;20045;-82
2022/06/10 06:49:44;;;;;;;0.00;0.00;;;;;;;;;;5017446;28;20038;-84
2022/06/10 06:52:10;;;;;;;0.00;0.00;;;;;;;;;;5001621;28;20046;-82
2022/06/10 06:54:37;;;;;;;0.00;0.00;;;;;;;;;;5017393;28;20480;-83
2022/06/10 06:57:03;;;;;;;0.00;0.00;;;;;;;;;;5018013;28;20041;-82
2022/06/10 06:59:29;;;;;;;0.00;0.00;;;;;;;;;;5017491;28;20050;-84
2022/06/10 07:01:55;;;;;;;0.00;0.00;;;;;;;;;;5017954;28;20042;-81
2022/06/10 07:04:21;;;;;;;0.00;0.00;;;;;;;;;;5017457;28;20076;-82
2022/06/10 07:06:47;;;;;;;0.00;0.00;;;;;;;;;;5017889;28;20084;-82
2022/06/10 07:09:13;;;;;;;0.00;0.00;;;;;;;;;;5017375;28;20037;-82
2022/06/10 07:11:39;;;;;;;0.00;0.00;;;;;;;;;;5017986;28;20154;-81
2022/06/10 07:14:06;;;;;;;0.00;0.00;;;;;;;;;;5017075;28;20057;-82
2022/06/10 07:16:32;;;;;;;0.00;0.00;;;;;;;;;;5017470;28;20125;-82
2022/06/10 07:18:58;;;;;;;0.00;0.00;;;;;;;;;;5016687;28;20046;-82
2022/06/10 07:21:24;;;;;;;0.00;0.00;;;;;;;;;;5016978;28;20041;-82
2022/06/10 07:23:50;;;;;;;0.00;0.00;;;;;;;;;;5034950;28;20047;-82
2022/06/10 07:26:16;;;;;;;0.00;0.00;;;;;;;;;;5017295;28;20044;-81
2022/06/10 07:28:42;;;;;;;0.00;0.00;;;;;;;;;;5017326;28;20461;-82
2022/06/10 07:31:08;;;;;;;0.00;0.00;;;;;;;;;;5034913;28;20145;-82
2022/06/10 07:33:35;;;;;;;0.00;0.00;;;;;;;;;;5016846;28;20116;-82
2022/06/10 07:36:02;;;;;;;0.00;0.00;;;;;;;;;;5034803;28;20049;-81
2022/06/10 07:38:28;;;;;;;0.00;0.00;;;;;;;;;;5016784;28;20444;-82
2022/06/10 07:43:40;;;;;;;0.00;0.00;;;;;;;;;;5034847;28;20041;-82
2022/06/10 07:46:06;;;;;;;0.00;0.00;;;;;;;;;;5034744;28;20046;-82
2022/06/10 07:48:32;;;;;;;0.00;0.00;;;;;;;;;;5016964;28;20049;-82
2022/06/10 07:50:58;;;;;;;0.00;0.00;;;;;;;;;;5016835;28;20046;-82
2022/06/10 07:53:24;;;;;;;0.00;0.00;;;;;;;;;;5028154;28;20444;-82
2022/06/10 07:55:50;;;;;;;0.00;0.00;;;;;;;;;;5033536;28;20033;-82
2022/06/10 07:58:17;;;;;;;0.00;0.00;;;;;;;;;;5033863;28;20366;-83
2022/06/10 08:00:43;;;;;;;0.00;0.00;;;;;;;;;;5033720;28;20045;-82
2022/06/10 08:03:10;;;;;;;0.00;0.00;;;;;;;;;;5016989;28;20041;-82
2022/06/10 08:05:36;;;;;;;0.00;0.00;;;;;;;;;;5033279;28;20176;-82
2022/06/10 08:08:03;;;;;;;0.00;0.00;;;;;;;;;;5033658;28;20053;-82
2022/06/10 08:10:31;;;;;;;0.00;0.00;;;;;;;;;;5033237;28;20052;-82
2022/06/10 08:12:57;;;;;;;0.00;0.00;;;;;;;;;;5033395;28;20041;-82
2022/06/10 08:15:23;;;;;;;0.00;0.00;;;;;;;;;;5032896;28;20127;-82
2022/06/10 08:17:50;;;;;;;0.00;0.00;;;;;;;;;;5033495;28;20103;-81
2022/06/10 08:20:24;;;;;;;0.00;0.00;;;;;;;;;;5033008;28;20053;-82
2022/06/10 08:22:50;;;;;;;0.00;0.00;;;;;;;;;;5017024;28;20045;-82
2022/06/10 08:25:17;;;;;;;0.00;0.00;;;;;;;;;;5033091;28;20558;-83
2022/06/10 08:27:43;;;;;;;0.00;0.00;;;;;;;;;;5033212;28;20080;-81
2022/06/10 08:30:13;;;;;;;0.00;0.00;;;;;;;;;;5032818;28;20045;-81
2022/06/10 08:32:38;;;;;;;0.00;0.00;;;;;;;;;;5033036;28;20495;-82
2022/06/10 08:35:06;;;;;;;0.00;0.00;;;;;;;;;;5032960;28;20045;-81
2022/06/10 08:37:32;;;;;;;0.00;0.00;;;;;;;;;;5033008;28;20042;-81
2022/06/10 08:39:58;;;;;;;0.00;0.00;;;;;;;;;;5033345;28;20068;-82
2022/06/10 08:42:41;;;;;;;0.17;0.00;;;;;;;;;;5032851;28;20212;-82
2022/06/10 08:45:10;;;;;;;0.00;0.00;;;;;;;;;;5016057;28;20041;-81
2022/06/10 08:47:55;;;;;;;0.00;0.00;;;;;;;;;;5032560;28;20077;-81
2022/06/10 08:50:24;;;;;;;0.00;0.00;;;;;;;;;;5032368;28;20056;-80
2022/06/10 08:52:50;;;;;;;0.00;0.00;;;;;;;;;;5031527;28;20041;-81
2022/06/10 08:55:22;;;;;;;0.00;0.00;;;;;;;;;;5033446;28;20104;-81
2022/06/10 08:57:48;;;;;;;0.00;0.00;;;;;;;;;;5032728;28;20041;-82
2022/06/10 09:00:15;;;;;;;0.00;0.00;;;;;;;;;;5032431;28;20045;-81
2022/06/10 09:03:04;;;;;;;0.00;0.00;;;;;;;;;;5033831;28;20049;-81
2022/06/10 09:05:34;;;;;;;0.00;0.00;;;;;;;;;;5025446;28;20279;-81
2022/06/10 09:08:01;;;;;;;0.00;0.00;;;;;;;;;;5032646;28;20064;-86
2022/06/10 09:10:38;;;;;;;0.00;0.00;;;;;;;;;;5015555;28;20044;-81
2022/06/10 09:13:04;;;;;;;0.00;0.00;;;;;;;;;;5033504;28;20048;-81
2022/06/10 09:15:30;;;;;;;0.00;0.00;;;;;;;;;;5031808;28;20049;-81
2022/06/10 09:18:03;;;;;;;0.00;0.00;;;;;;;;;;5031981;28;20099;-81
2022/06/10 09:20:34;;;;;;;0.00;0.00;;;;;;;;;;5032303;28;20053;-82
2022/06/10 09:23:13;;;;;;;0.00;0.00;;;;;;;;;;5032282;28;20515;-82
2022/06/10 09:25:42;;;;;;;0.00;0.00;;;;;;;;;;5031692;28;20055;-81
2022/06/10 09:28:08;;;;;;;0.00;0.00;;;;;;;;;;5031836;28;20045;-82
2022/06/10 09:30:36;;;;;;;0.00;0.00;;;;;;;;;;5031630;28;20051;-82
2022/06/10 09:33:19;;;;;;;0.00;0.00;;;;;;;;;;5031806;28;20042;-81
2022/06/10 09:35:53;;;;;;;0.00;0.00;;;;;;;;;;5031711;28;20041;-81
2022/06/10 09:38:33;;;;;;;0.00;0.00;;;;;;;;;;5015388;28;20076;-81
2022/06/10 09:41:19;;;;;;;0.00;0.00;;;;;;;;;;5015264;28;20041;-81
2022/06/10 09:44:06;;;;;;;0.00;0.00;;;;;;;;;;5001403;28;20060;-81
2022/06/10 09:46:48;;;;;;;0.00;0.00;;;;;;;;;;5031648;28;20457;-81
2022/06/10 09:49:21;;;;;;;0.00;0.00;;;;;;;;;;5031380;28;20045;-81
2022/06/10 09:51:53;;;;;;;0.00;0.00;;;;;;;;;;5033026;28;20071;-82
2022/06/10 09:54:31;;;;;;;0.00;0.00;;;;;;;;;;5030652;28;20369;-82
2022/06/10 09:57:08;;;;;;;0.00;0.00;;;;;;;;;;5032875;28;20088;-81
2022/06/10 09:59:43;;;;;;;0.00;0.00;;;;;;;;;;5030296;28;20045;-81
2022/06/10 10:02:18;;;;;;;0.00;0.00;;;;;;;;;;5015016;28;20119;-89
2022/06/10 10:05:07;;;;;;;0.00;0.00;;;;;;;;;;5030521;28;20099;-81
2022/06/10 10:07:42;;;;;;;0.00;0.00;;;;;;;;;;5004944;28;20100;-81
2022/06/10 10:10:17;;;;;;;0.00;0.00;;;;;;;;;;5031506;28;20091;-81
2022/06/10 10:12:46;;;;;;;0.00;0.00;;;;;;;;;;5031124;28;20454;-82
2022/06/10 10:15:12;;;;;;;0.00;0.00;;;;;;;;;;5031935;28;20050;-83
2022/06/10 10:18:00;;;;;;;0.00;0.00;;;;;;;;;;5014761;28;20054;-80
2022/06/10 10:20:41;;;;;;;0.00;0.00;;;;;;;;;;5032383;28;20072;-81
2022/06/10 10:23:26;;;;;;;0.00;0.00;;;;;;;;;;5032705;28;20103;-80
2022/06/10 10:25:52;;;;;;;0.00;0.00;;;;;;;;;;5014607;28;20053;-80
2022/06/10 10:28:23;;;;;;;0.00;0.00;;;;;;;;;;4998688;28;20132;-79
2022/06/10 10:30:49;;;;;;;0.10;0.00;;;;;;;;;;5030116;28;20046;-80
2022/06/10 10:33:16;;;;;;;0.00;0.00;;;;;;;;;;5014649;28;20053;-80
2022/06/10 10:35:50;;;;;;;0.00;0.00;;;;;;;;;;5032469;28;20124;-80
2022/06/10 10:38:29;;;;;;;0.00;0.00;;;;;;;;;;5015082;28;20046;-80
2022/06/10 10:40:55;;;;;;;0.00;0.00;;;;;;;;;;5014551;28;20048;-80
2022/06/10 10:43:21;;;;;;;0.00;0.00;;;;;;;;;;5014792;28;20077;-80
2022/06/10 10:45:56;;;;;;;0.00;0.00;;;;;;;;;;5014458;28;20077;-80
2022/06/10 10:48:25;;;;;;;0.00;0.00;;;;;;;;;;5014938;28;20125;-80
2022/06/10 10:51:11;;;;;;;0.00;0.00;;;;;;;;;;5032030;28;20049;-80
2022/06/10 10:53:39;;;;;;;0.00;0.00;;;;;;;;;;4998159;28;20057;-80
2022/06/10 10:56:06;;;;;;;0.00;0.00;;;;;;;;;;5034633;28;20552;-80
2022/06/10 10:58:35;;;;;;;0.00;0.00;;;;;;;;;;5036340;28;20045;-81
2022/06/10 11:01:03;;;;;;;0.00;0.00;;;;;;;;;;5017980;28;20049;-80
2022/06/10 11:03:34;;;;;;;0.00;0.00;;;;;;;;;;5017910;28;20500;-80
2022/06/10 11:06:03;;;;;;;0.00;0.00;;;;;;;;;;5035704;28;20037;-80
2022/06/10 11:08:37;;;;;;;0.00;0.00;;;;;;;;;;5035635;28;20056;-81
2022/06/10 11:11:12;;;;;;;0.00;0.00;;;;;;;;;;5017715;28;20037;-80
2022/06/10 11:13:42;;;;;;;0.00;0.00;;;;;;;;;;5017676;28;20038;-80
2022/06/10 11:16:26;;;;;;;0.00;0.00;;;;;;;;;;5035431;28;20041;-80
2022/06/10 11:18:58;;;;;;;0.00;0.00;;;;;;;;;;5001462;28;20145;-80
2022/06/10 11:21:25;;;;;;;0.00;0.00;;;;;;;;;;5017667;28;20092;-81
2022/06/10 11:23:52;;;;;;;0.00;0.00;;;;;;;;;;5001401;28;20049;-81
2022/06/10 11:26:20;;;;;;;0.00;0.00;;;;;;;;;;5017428;28;20047;-81
2022/06/10 11:28:46;;;;;;;0.00;0.00;;;;;;;;;;5035537;28;20045;-81
2022/06/10 11:31:18;;;;;;;0.00;0.00;;;;;;;;;;5017244;28;20041;-81
2022/06/10 11:33:45;;;;;;;0.00;0.00;;;;;;;;;;5017782;28;20048;-80
2022/06/10 11:36:13;;;;;;;0.00;0.00;;;;;;;;;;5035288;28;20113;-81
2022/06/10 11:38:48;;;;;;;0.00;0.00;;;;;;;;;;5035121;28;20476;-80
2022/06/10 11:41:26;;;;;;;0.00;0.00;;;;;;;;;;5017650;28;20045;-80
2022/06/10 11:43:55;;;;;;;0.45;0.30;;;;;;;;;;5017268;28;20050;-80
2022/06/10 11:46:35;;;;;;;0.00;0.00;;;;;;;;;;5017425;28;20095;-81
2022/06/10 11:49:07;;;;;;;0.00;0.00;;;;;;;;;;5017370;28;20150;-81
2022/06/10 11:51:39;;;;;;;0.00;0.00;;;;;;;;;;5016864;28;20381;-80
2022/06/10 11:54:18;;;;;;;0.00;0.00;;;;;;;;;;5017297;28;20041;-80
2022/06/10 12:00:22;;;;;;;0.00;0.00;;;;;;;;;;5004354;28;20045;-80
2022/06/10 12:02:48;;;;;;;0.00;0.00;;;;;;;;;;5034579;28;20046;-80
2022/06/10 12:05:15;;;;;;;0.00;0.00;;;;;;;;;;5016609;28;20068;-80
2022/06/10 12:07:44;;;;;;;0.00;0.00;;;;;;;;;;5016721;28;20042;-80
2022/06/10 12:10:14;;;;;;;0.00;0.00;;;;;;;;;;5016897;28;20428;-80
2022/06/10 12:12:42;;;;;;;0.00;0.00;;;;;;;;;;5034352;28;20401;-80
2022/06/10 12:15:20;;;;;;;0.00;0.00;;;;;;;;;;5016453;28;20103;-80
2022/06/10 12:17:48;;;;;;;0.00;0.00;;;;;;;;;;5016607;28;20049;-81
2022/06/10 12:20:21;;;;;;;0.00;0.00;;;;;;;;;;5016738;28;20049;-80
2022/06/10 12:22:47;;;;;;;0.00;0.00;;;;;;;;;;5000092;28;20120;-80
2022/06/10 12:25:25;;;;;;;0.00;0.00;;;;;;;;;;5034310;28;20117;-80
2022/06/10 12:28:01;;;;;;;0.00;0.00;;;;;;;;;;5016593;28;20107;-80
2022/06/10 12:30:47;;;;;;;0.00;0.00;;;;;;;;;;5016449;28;20521;-81
2022/06/10 12:33:17;;;;;;;0.00;0.00;;;;;;;;;;5016286;28;20045;-80
2022/06/10 12:35:44;;;;;;;0.00;0.00;;;;;;;;;;5016411;28;20095;-80
2022/06/10 12:38:17;;;;;;;0.00;0.00;;;;;;;;;;5033868;28;20440;-80
2022/06/10 12:40:46;;;;;;;0.00;0.00;;;;;;;;;;5016398;28;20046;-80
2022/06/10 12:43:15;;;;;;;0.00;0.00;;;;;;;;;;5034054;28;20116;-81
2022/06/10 12:45:41;;;;;;;0.00;0.00;;;;;;;;;;5016361;28;20106;-80
2022/06/10 12:48:10;;;;;;;0.00;0.00;;;;;;;;;;5016261;28;20492;-80
2022/06/10 12:50:37;;;;;;;0.00;0.00;;;;;;;;;;5016122;28;20060;-80
2022/06/10 12:53:13;;;;;;;0.00;0.00;;;;;;;;;;5015904;28;20052;-80
2022/06/10 12:55:47;;;;;;;0.00;0.00;;;;;;;;;;5014745;28;20037;-81
2022/06/10 12:58:32;;;;;;;0.00;0.00;;;;;;;;;;5033520;28;20052;-80
2022/06/10 13:01:10;;;;;;;0.00;0.00;;;;;;;;;;4999522;28;20072;-80
2022/06/10 13:03:38;;;;;;;0.00;0.00;;;;;;;;;;5015861;28;20053;-81
2022/06/10 13:06:06;;;;;;;0.00;0.00;;;;;;;;;;5015853;28;20507;-81
2022/06/10 13:08:34;;;;;;;0.00;0.00;;;;;;;;;;5033359;28;20037;-80
2022/06/10 13:11:01;;;;;;;0.00;0.00;;;;;;;;;;4999521;28;20041;-80
2022/06/10 13:13:27;;;;;;;0.00;0.00;;;;;;;;;;5015165;28;20041;-80
2022/06/10 13:15:55;;;;;;;0.00;0.00;;;;;;;;;;5015877;28;20049;-80
2022/06/10 13:18:32;;;;;;;0.00;0.00;;;;;;;;;;5014714;28;20034;-80
2022/06/10 13:21:06;;;;;;;0.00;0.00;;;;;;;;;;5015550;28;20049;-80
2022/06/10 13:23:44;;;;;;;0.00;0.00;;;;;;;;;;5015329;28;20049;-80
2022/06/10 13:26:12;;;;;;;0.00;0.00;;;;;;;;;;5015509;28;20384;-80
2022/06/10 13:28:39;;;;;;;0.00;0.00;;;;;;;;;;5033196;28;20049;-80
2022/06/10 13:31:14;;;;;;;0.00;0.00;;;;;;;;;;5015392;28;20045;-81
2022/06/10 13:33:57;;;;;;;0.00;0.00;;;;;;;;;;5033111;28;20045;-81
2022/06/10 13:36:25;;;;;;;0.00;0.00;;;;;;;;;;5015527;28;20480;-80
2022/06/10 13:38:52;;;;;;;0.00;0.00;;;;;;;;;;4998703;28;20095;-80
2022/06/10 13:41:52;;;;;;;0.28;0.10;;;;;;;;;;5033280;28;20092;-80
2022/06/10 13:44:26;;;;;;;0.00;0.00;;;;;;;;;;4999321;28;20476;-80
2022/06/10 13:46:52;;;;;;;0.15;0.00;;;;;;;;;;5015195;28;20051;-80
2022/06/10 13:52:15;;;;;;;0.00;0.00;;;;;;;;;;5032792;28;20053;-81
2022/06/10 13:54:41;;;;;;;0.00;0.00;;;;;;;;;;5015075;28;20096;-80
2022/06/10 13:57:20;;;;;;;0.00;0.00;;;;;;;;;;5032602;28;20427;-80
2022/06/10 13:59:56;;;;;;;0.00;0.00;;;;;;;;;;5015147;28;20503;-80
2022/06/10 14:02:24;;;;;;;0.00;0.00;;;;;;;;;;5015263;28;20525;-80
2022/06/10 14:04:50;;;;;;;0.00;0.00;;;;;;;;;;5032637;28;20511;-80
2022/06/10 14:07:24;;;;;;;0.00;0.00;;;;;;;;;;5015084;28;20057;-80
2022/06/10 14:09:51;;;;;;;0.00;0.00;;;;;;;;;;5015036;28;20041;-80
2022/06/10 14:12:21;;;;;;;0.05;0.03;;;;;;;;;;5014828;28;20152;-80
2022/06/10 14:14:48;;;;;;;0.00;0.00;;;;;;;;;;5014733;28;20129;-80
2022/06/10 14:17:14;;;;;;;0.00;0.00;;;;;;;;;;5032669;28;20049;-80
2022/06/10 14:19:42;;;;;;;0.25;0.08;;;;;;;;;;5015272;28;20129;-80
2022/06/10 14:22:12;;;;;;;0.00;0.00;;;;;;;;;;5014620;28;20046;-80
2022/06/10 14:24:38;;;;;;;0.00;0.00;;;;;;;;;;5032704;28;20439;-80
2022/06/10 14:27:11;;;;;;;0.00;0.00;;;;;;;;;;5013587;28;20507;-81
2022/06/10 14:29:40;;;;;;;0.00;0.00;;;;;;;;;;5017099;28;20072;-80
2022/06/10 14:32:20;;;;;;;0.00;0.00;;;;;;;;;;5018818;28;20044;-81
2022/06/10 14:34:46;;;;;;;0.00;0.00;;;;;;;;;;5018849;28;20398;-80
2022/06/10 14:37:24;;;;;;;0.00;0.00;;;;;;;;;;5018516;28;20443;-80
2022/06/10 14:40:11;;;;;;;0.00;0.00;;;;;;;;;;5018554;28;20041;-81
2022/06/10 14:42:38;;;;;;;0.00;0.00;;;;;;;;;;5036370;28;20049;-80
2022/06/10 14:45:23;;;;;;;0.00;0.00;;;;;;;;;;5017483;28;20116;-80
2022/06/10 14:48:00;;;;;;;0.00;0.00;;;;;;;;;;5018283;28;20049;-80
2022/06/10 14:50:26;;;;;;;0.00;0.00;;;;;;;;;;5001305;28;20045;-80
2022/06/10 14:52:53;;;;;;;0.00;0.00;;;;;;;;;;5018422;28;20045;-80
2022/06/10 14:55:22;;;;;;;0.00;0.00;;;;;;;;;;5017031;28;20041;-80
2022/06/10 14:57:53;;;;;;;0.00;0.00;;;;;;;;;;5018068;28;20045;-80
2022/06/10 15:00:19;;;;;;;0.00;0.00;;;;;;;;;;5035316;28;20087;-80
2022/06/10 15:02:45;;;;;;;0.00;0.00;;;;;;;;;;5001648;28;20063;-80
2022/06/10 15:07:56;;;;;;;0.00;0.00;;;;;;;;;;5055615;28;20044;-80
2022/06/10 15:10:23;;;;;;;0.00;0.00;;;;;;;;;;5055192;28;20076;-80
2022/06/10 15:12:49;;;;;;;0.00;0.00;;;;;;;;;;5037780;28;20512;-80
2022/06/10 15:15:17;;;;;;;0.00;0.00;;;;;;;;;;5037685;28;20446;-80
2022/06/10 15:17:46;;;;;;;0.00;0.00;;;;;;;;;;5037554;28;20055;-81
2022/06/10 15:20:13;;;;;;;0.00;0.00;;;;;;;;;;5037722;28;20052;-80